Time;durP1;ratioP1;P1;durP2;ratioP2;P2;SDS_P1;SDS_P2;PMS_P1;PMS_P2;Temp;Humidity;BMP_temperature;BMP_pressure;BME280_temperature;BME280_humidity;BME280_pressure;Samples;Min_cycle;Max_cycle;Signal;HPM_P1;HPM_P2
2023/10/27 00:00:34;;;;;;;58.25;36.60;;;12.00;99.90;;;;;;5105280;28;20055;-66
2023/10/27 00:02:59;;;;;;;56.10;36.20;;;12.00;99.90;;;;;;5109566;28;20027;-66
2023/10/27 00:05:25;;;;;;;57.17;38.28;;;12.10;99.90;;;;;;5098592;28;20111;-65
2023/10/27 00:07:51;;;;;;;54.92;36.85;;;12.00;99.90;;;;;;5111023;28;20101;-66
2023/10/27 00:10:17;;;;;;;55.13;36.30;;;12.00;99.90;;;;;;5103272;28;20020;-66
2023/10/27 00:12:43;;;;;;;53.03;36.08;;;12.00;99.90;;;;;;5103612;28;20081;-66
2023/10/27 00:15:08;;;;;;;57.35;35.58;;;12.00;99.90;;;;;;5110600;28;20425;-66
2023/10/27 00:17:35;;;;;;;58.15;38.67;;;12.00;99.90;;;;;;5098602;28;20032;-66
2023/10/27 00:20:01;;;;;;;54.60;37.03;;;12.00;99.90;;;;;;5109404;28;20034;-66
2023/10/27 00:22:27;;;;;;;54.17;36.70;;;12.00;99.90;;;;;;5104229;28;20026;-66
2023/10/27 00:24:53;;;;;;;54.97;36.53;;;12.00;99.90;;;;;;5107922;28;20486;-66
2023/10/27 00:27:20;;;;;;;55.90;36.42;;;12.00;99.90;;;;;;5098368;28;20024;-66
2023/10/27 00:29:46;;;;;;;53.50;36.53;;;12.00;99.90;;;;;;5111587;28;20024;-66
2023/10/27 00:32:11;;;;;;;54.30;36.67;;;12.00;99.90;;;;;;5102122;28;20023;-66
2023/10/27 00:34:37;;;;;;;58.08;37.30;;;12.00;99.90;;;;;;5104149;28;20035;-66
2023/10/27 00:37:03;;;;;;;55.13;37.85;;;12.00;99.90;;;;;;5109390;28;20377;-66
2023/10/27 00:39:28;;;;;;;55.72;37.35;;;12.00;99.90;;;;;;5098179;28;20031;-66
2023/10/27 00:41:54;;;;;;;60.47;38.63;;;12.00;99.90;;;;;;5110029;28;20024;-66
2023/10/27 00:44:19;;;;;;;57.20;38.38;;;12.00;99.90;;;;;;5103208;28;20027;-66
2023/10/27 00:46:45;;;;;;;58.78;37.58;;;12.00;99.90;;;;;;5102667;28;20055;-66
2023/10/27 00:49:11;;;;;;;58.95;38.88;;;12.00;99.90;;;;;;5110066;28;20054;-66
2023/10/27 00:51:38;;;;;;;55.10;36.63;;;11.90;99.90;;;;;;5097689;28;20369;-66
2023/10/27 00:54:08;;;;;;;59.90;38.90;;;11.90;99.90;;;;;;5108062;28;20560;-66
2023/10/27 00:56:35;;;;;;;57.97;37.60;;;11.90;99.90;;;;;;5104943;28;20035;-66
2023/10/27 00:59:01;;;;;;;59.85;38.40;;;11.90;99.90;;;;;;5100499;28;20038;-66
2023/10/27 01:01:27;;;;;;;58.03;37.25;;;11.90;99.90;;;;;;5111132;28;20118;-65
2023/10/27 01:03:55;;;;;;;60.42;39.30;;;11.90;99.90;;;;;;5099074;28;20539;-65
2023/10/27 01:06:22;;;;;;;55.22;37.15;;;11.80;99.90;;;;;;5105898;28;20028;-65
2023/10/27 01:08:47;;;;;;;57.85;38.50;;;11.90;99.90;;;;;;5106424;28;20031;-66
2023/10/27 01:11:13;;;;;;;58.95;38.97;;;11.80;99.90;;;;;;5098432;28;20097;-65
2023/10/27 01:13:38;;;;;;;58.92;37.88;;;11.90;99.90;;;;;;5110688;28;20024;-66
2023/10/27 01:16:04;;;;;;;60.42;38.97;;;11.90;99.90;;;;;;5100008;28;20599;-66
2023/10/27 01:18:30;;;;;;;59.78;38.78;;;11.90;99.90;;;;;;5104462;28;20032;-66
2023/10/27 01:20:55;;;;;;;59.65;39.22;;;11.90;99.90;;;;;;5107196;28;20028;-66
2023/10/27 01:23:21;;;;;;;57.85;39.03;;;11.90;99.90;;;;;;5097198;28;20019;-66
2023/10/27 01:25:46;;;;;;;57.83;37.75;;;11.90;99.90;;;;;;5109922;28;20020;-66
2023/10/27 01:28:12;;;;;;;60.40;38.10;;;11.90;99.90;;;;;;5101309;28;20025;-66
2023/10/27 01:30:37;;;;;;;59.65;38.13;;;11.90;99.90;;;;;;5109227;28;20080;-65
2023/10/27 01:33:03;;;;;;;62.50;39.00;;;11.90;99.90;;;;;;5099380;28;20020;-66
2023/10/27 01:35:29;;;;;;;62.08;39.53;;;11.80;99.90;;;;;;5110451;28;20087;-66
2023/10/27 01:37:54;;;;;;;63.22;39.78;;;11.80;99.90;;;;;;5098317;28;20327;-66
2023/10/27 01:40:20;;;;;;;61.95;40.20;;;11.70;99.90;;;;;;5105359;28;20460;-66
2023/10/27 01:42:45;;;;;;;69.05;41.25;;;11.70;99.90;;;;;;5105741;28;20030;-65
2023/10/27 01:45:11;;;;;;;71.25;41.35;;;11.70;99.90;;;;;;5098019;28;20493;-66
2023/10/27 01:47:36;;;;;;;65.05;40.97;;;11.70;99.90;;;;;;5110284;28;20406;-66
2023/10/27 01:50:02;;;;;;;64.40;41.50;;;11.60;99.90;;;;;;5099261;28;20015;-66
2023/10/27 01:52:28;;;;;;;69.20;41.78;;;11.60;99.90;;;;;;5103830;28;20372;-66
2023/10/27 01:54:53;;;;;;;78.07;42.80;;;11.60;99.90;;;;;;5104958;28;20047;-65
2023/10/27 01:57:24;;;;;;;71.22;42.40;;;11.60;99.90;;;;;;5104573;28;20016;-66
2023/10/27 01:59:50;;;;;;;75.93;43.42;;;11.50;99.90;;;;;;5104434;28;20035;-66
2023/10/27 02:02:16;;;;;;;71.22;43.00;;;11.60;99.90;;;;;;5103699;28;20024;-67
2023/10/27 02:04:42;;;;;;;73.25;43.13;;;11.50;99.90;;;;;;5103077;28;20475;-66
2023/10/27 02:07:07;;;;;;;71.03;41.78;;;11.50;99.90;;;;;;5103886;28;20028;-66
2023/10/27 02:09:33;;;;;;;74.10;43.20;;;11.50;99.90;;;;;;5100819;28;20490;-66
2023/10/27 02:11:59;;;;;;;78.13;43.47;;;11.40;99.90;;;;;;5103445;28;20024;-66
2023/10/27 02:14:25;;;;;;;78.80;42.78;;;11.40;99.90;;;;;;5103097;28;20039;-65
2023/10/27 02:16:51;;;;;;;77.65;43.75;;;11.40;99.90;;;;;;5102061;28;20040;-66
2023/10/27 02:19:17;;;;;;;78.53;43.20;;;11.40;99.90;;;;;;5104077;28;20024;-65
2023/10/27 02:21:42;;;;;;;82.03;43.45;;;11.40;99.90;;;;;;5102813;28;20024;-65
2023/10/27 02:24:08;;;;;;;79.00;44.08;;;11.40;99.90;;;;;;5103429;28;20026;-65
2023/10/27 02:26:35;;;;;;;82.10;44.38;;;11.40;99.90;;;;;;5101958;28;20020;-65
2023/10/27 02:29:01;;;;;;;82.75;44.05;;;11.40;99.90;;;;;;5103710;28;20019;-66
2023/10/27 02:31:27;;;;;;;86.40;44.33;;;11.40;99.90;;;;;;5103298;28;20021;-66
2023/10/27 02:33:52;;;;;;;82.32;44.00;;;11.40;99.90;;;;;;5101882;28;20031;-65
2023/10/27 02:36:18;;;;;;;84.95;44.72;;;11.30;99.90;;;;;;5103952;28;20038;-65
2023/10/27 02:38:43;;;;;;;84.03;44.22;;;11.30;99.90;;;;;;5102573;28;20028;-65
2023/10/27 02:41:10;;;;;;;87.40;45.60;;;11.30;99.90;;;;;;5102132;28;20019;-66
2023/10/27 02:43:37;;;;;;;90.32;45.65;;;11.30;99.90;;;;;;5103538;28;20106;-66
2023/10/27 02:46:04;;;;;;;88.65;44.78;;;11.30;99.90;;;;;;5102477;28;20021;-66
2023/10/27 02:48:30;;;;;;;88.57;42.78;;;11.30;99.90;;;;;;5102306;28;20153;-66
2023/10/27 02:50:56;;;;;;;86.13;43.03;;;11.30;99.90;;;;;;5103490;28;20107;-66
2023/10/27 02:53:21;;;;;;;91.43;44.70;;;11.30;99.90;;;;;;5101469;28;20085;-66
2023/10/27 02:55:47;;;;;;;86.72;43.28;;;11.30;99.90;;;;;;5095835;28;20039;-67
2023/10/27 02:58:12;;;;;;;95.07;44.42;;;11.30;99.90;;;;;;5103436;28;20332;-66
2023/10/27 03:00:42;;;;;;;86.55;42.00;;;11.30;99.90;;;;;;5093037;28;20032;-66
2023/10/27 03:03:09;;;;;;;94.63;44.22;;;11.30;99.90;;;;;;5098186;28;20478;-66
2023/10/27 03:05:35;;;;;;;91.97;42.55;;;11.30;99.90;;;;;;5086846;28;20031;-66
2023/10/27 03:08:00;;;;;;;87.03;41.08;;;11.30;99.90;;;;;;5113360;28;20478;-67
2023/10/27 03:10:26;;;;;;;87.25;41.50;;;11.30;99.90;;;;;;5111349;28;20027;-66
2023/10/27 03:12:52;;;;;;;86.60;43.17;;;11.30;99.90;;;;;;5100489;28;20113;-66
2023/10/27 03:15:17;;;;;;;88.90;42.28;;;11.20;99.90;;;;;;5116786;28;20046;-67
2023/10/27 03:17:43;;;;;;;89.80;42.97;;;11.20;99.90;;;;;;5106705;28;20115;-67
2023/10/27 03:20:09;;;;;;;87.85;40.65;;;11.20;99.90;;;;;;5115840;28;20102;-66
2023/10/27 03:22:34;;;;;;;95.70;43.90;;;11.20;99.90;;;;;;5102476;28;20111;-66
2023/10/27 03:25:00;;;;;;;91.32;41.45;;;11.20;99.90;;;;;;5097689;28;20032;-66
2023/10/27 03:27:26;;;;;;;87.18;41.08;;;11.30;99.90;;;;;;5110834;28;20051;-67
2023/10/27 03:29:51;;;;;;;81.55;38.45;;;11.20;99.90;;;;;;5106622;28;20376;-67
2023/10/27 03:32:18;;;;;;;81.75;37.97;;;11.20;99.90;;;;;;5095934;28;20038;-67
2023/10/27 03:34:45;;;;;;;79.85;37.72;;;11.20;99.90;;;;;;5110266;28;20034;-67
2023/10/27 03:37:12;;;;;;;82.90;38.70;;;11.20;99.90;;;;;;5115066;28;20027;-66
2023/10/27 03:39:38;;;;;;;75.35;37.10;;;11.20;99.90;;;;;;5116541;28;20036;-67
2023/10/27 03:42:04;;;;;;;78.38;37.60;;;11.20;99.90;;;;;;5116554;28;20020;-67
2023/10/27 03:44:30;;;;;;;74.28;35.30;;;11.20;99.90;;;;;;5116330;28;20042;-67
2023/10/27 03:46:55;;;;;;;73.78;35.45;;;11.20;99.90;;;;;;5116388;28;20460;-67
2023/10/27 03:49:21;;;;;;;70.68;34.22;;;11.10;99.90;;;;;;5115884;28;20055;-67
2023/10/27 03:51:46;;;;;;;71.93;33.80;;;11.10;99.90;;;;;;5116407;28;20157;-67
2023/10/27 03:54:12;;;;;;;67.15;31.83;;;11.10;99.90;;;;;;5115747;28;20075;-67
2023/10/27 03:56:37;;;;;;;66.70;32.17;;;11.20;99.90;;;;;;5116420;28;20036;-66
2023/10/27 03:59:03;;;;;;;73.35;33.17;;;11.20;99.90;;;;;;5116154;28;20096;-67
2023/10/27 04:01:29;;;;;;;205.18;59.05;;;11.20;99.90;;;;;;5116128;28;20066;-67
2023/10/27 04:03:55;;;;;;;63.85;30.42;;;11.20;99.90;;;;;;5116048;28;20055;-67
2023/10/27 04:06:21;;;;;;;98.07;33.40;;;11.20;99.90;;;;;;5116331;28;20088;-67
2023/10/27 04:08:46;;;;;;;248.95;46.65;;;11.30;99.90;;;;;;5116113;28;20063;-67
2023/10/27 04:11:12;;;;;;;247.57;46.78;;;11.30;99.90;;;;;;5116405;28;20070;-67
2023/10/27 04:13:39;;;;;;;131.82;35.47;;;11.30;99.90;;;;;;5106802;28;20111;-67
2023/10/27 04:16:04;;;;;;;178.57;35.97;;;11.30;99.90;;;;;;5104015;28;20048;-68
2023/10/27 04:18:30;;;;;;;54.70;26.92;;;11.20;99.90;;;;;;5105875;28;20069;-67
2023/10/27 04:20:56;;;;;;;57.08;27.65;;;11.30;99.90;;;;;;5104978;28;20099;-68
2023/10/27 04:23:22;;;;;;;64.60;28.48;;;11.30;99.90;;;;;;5104317;28;20022;-67
2023/10/27 04:25:48;;;;;;;61.10;27.75;;;11.20;99.90;;;;;;5104222;28;20028;-68
2023/10/27 04:28:14;;;;;;;54.88;26.20;;;11.20;99.90;;;;;;5106120;28;20030;-67
2023/10/27 04:30:40;;;;;;;59.17;27.50;;;11.20;99.90;;;;;;5104554;28;20020;-67
2023/10/27 04:33:05;;;;;;;57.55;26.17;;;11.30;99.90;;;;;;5104792;28;20482;-67
2023/10/27 04:35:32;;;;;;;53.58;27.23;;;11.20;99.90;;;;;;5105633;28;20404;-68
2023/10/27 04:37:58;;;;;;;57.80;27.02;;;11.20;99.90;;;;;;5103757;28;20021;-67
2023/10/27 04:40:25;;;;;;;156.88;35.83;;;11.20;99.90;;;;;;5103825;28;20032;-68
2023/10/27 04:42:51;;;;;;;74.55;28.45;;;11.30;99.90;;;;;;5104436;28;20023;-67
2023/10/27 04:45:16;;;;;;;56.25;26.00;;;11.30;99.90;;;;;;5105502;28;20035;-68
2023/10/27 04:47:43;;;;;;;50.70;24.80;;;11.30;99.90;;;;;;5104166;28;20020;-67
2023/10/27 04:50:09;;;;;;;294.05;49.20;;;11.20;99.90;;;;;;5104461;28;20035;-67
2023/10/27 04:52:34;;;;;;;59.38;24.27;;;11.30;99.90;;;;;;5105516;28;20048;-67
2023/10/27 04:55:00;;;;;;;51.95;23.77;;;11.30;99.90;;;;;;5103173;28;20391;-66
2023/10/27 04:57:26;;;;;;;53.05;25.20;;;11.30;99.90;;;;;;5103690;28;20026;-67
2023/10/27 04:59:51;;;;;;;62.30;24.27;;;11.20;99.90;;;;;;5104936;28;20100;-69
2023/10/27 05:02:17;;;;;;;133.80;32.35;;;11.20;99.90;;;;;;5101837;28;20107;-67
2023/10/27 05:04:42;;;;;;;54.33;25.13;;;11.20;99.90;;;;;;5105404;28;20072;-67
2023/10/27 05:07:10;;;;;;;48.85;22.42;;;11.30;99.90;;;;;;5103416;28;20464;-68
2023/10/27 05:09:35;;;;;;;50.80;23.38;;;11.20;99.90;;;;;;5103810;28;20427;-68
2023/10/27 05:12:02;;;;;;;48.83;22.23;;;11.30;99.90;;;;;;5105157;28;20103;-68
2023/10/27 05:14:28;;;;;;;46.80;22.10;;;11.20;99.90;;;;;;5100565;28;20020;-68
2023/10/27 05:16:53;;;;;;;49.53;23.42;;;11.30;99.90;;;;;;5104093;28;20030;-66
2023/10/27 05:19:19;;;;;;;51.25;23.23;;;11.30;99.90;;;;;;5107610;28;20011;-66
2023/10/27 05:21:44;;;;;;;53.38;23.25;;;11.30;99.90;;;;;;5114758;28;20551;-68
2023/10/27 05:24:11;;;;;;;48.30;21.65;;;11.30;99.90;;;;;;5106581;27;20525;-68
2023/10/27 05:26:36;;;;;;;46.42;22.15;;;11.40;99.90;;;;;;5094380;28;20483;-68
2023/10/27 05:29:02;;;;;;;49.45;21.77;;;11.30;99.90;;;;;;5094295;28;20024;-68
2023/10/27 05:31:28;;;;;;;47.10;22.15;;;11.30;99.90;;;;;;5105092;28;20051;-68
2023/10/27 05:33:53;;;;;;;45.97;22.13;;;11.40;99.90;;;;;;5112932;28;20047;-67
2023/10/27 05:36:19;;;;;;;46.78;21.80;;;11.30;99.90;;;;;;5106648;28;20035;-67
2023/10/27 05:38:44;;;;;;;47.20;21.00;;;11.40;99.90;;;;;;5105280;28;20023;-67
2023/10/27 05:41:10;;;;;;;53.30;21.73;;;11.40;99.90;;;;;;5106005;28;20128;-68
2023/10/27 05:43:35;;;;;;;41.25;18.85;;;11.40;99.90;;;;;;5114345;28;20111;-67
2023/10/27 05:46:01;;;;;;;41.72;20.15;;;11.30;99.90;;;;;;5102923;28;20051;-67
2023/10/27 05:48:26;;;;;;;42.60;20.33;;;11.40;99.90;;;;;;5096163;28;20028;-67
2023/10/27 05:50:52;;;;;;;44.35;19.88;;;11.30;99.90;;;;;;5114708;28;20369;-67
2023/10/27 05:53:17;;;;;;;38.33;18.42;;;11.30;99.90;;;;;;5105043;28;20082;-67
2023/10/27 05:55:43;;;;;;;38.55;18.65;;;11.30;99.90;;;;;;5103189;28;20032;-67
2023/10/27 05:58:09;;;;;;;41.80;19.38;;;11.30;99.90;;;;;;5107586;28;20031;-67
2023/10/27 06:00:34;;;;;;;37.85;18.42;;;11.30;99.90;;;;;;5108707;28;20457;-68
2023/10/27 06:03:00;;;;;;;36.88;17.40;;;11.20;99.90;;;;;;5101646;28;20043;-69
2023/10/27 06:05:26;;;;;;;43.72;19.92;;;11.30;99.90;;;;;;5104453;28;20024;-67
2023/10/27 06:07:51;;;;;;;59.22;21.48;;;11.20;99.90;;;;;;5104817;28;20115;-67
2023/10/27 06:10:18;;;;;;;42.70;20.13;;;11.30;99.90;;;;;;5105634;28;20353;-67
2023/10/27 06:12:43;;;;;;;37.92;18.85;;;11.20;99.90;;;;;;5108646;28;20019;-67
2023/10/27 06:15:09;;;;;;;42.50;19.77;;;11.30;99.90;;;;;;5113619;28;20349;-68
2023/10/27 06:17:35;;;;;;;39.70;17.55;;;11.20;99.90;;;;;;5114010;28;20110;-68
2023/10/27 06:20:03;;;;;;;42.35;18.95;;;11.20;99.90;;;;;;5113855;28;20034;-68
2023/10/27 06:22:29;;;;;;;41.17;19.67;;;11.20;99.90;;;;;;5112222;28;20157;-67
2023/10/27 06:24:55;;;;;;;42.25;18.48;;;11.30;99.90;;;;;;5093238;28;20142;-68
2023/10/27 06:27:21;;;;;;;43.60;19.85;;;11.30;99.90;;;;;;5092617;28;20451;-67
2023/10/27 06:29:47;;;;;;;227.95;44.67;;;11.30;99.90;;;;;;5092790;28;20024;-68
2023/10/27 06:32:13;;;;;;;37.03;17.42;;;11.30;99.90;;;;;;5093453;28;20028;-68
2023/10/27 06:34:38;;;;;;;41.47;19.67;;;11.30;99.90;;;;;;5092925;28;20035;-69
2023/10/27 06:37:05;;;;;;;35.47;17.27;;;11.30;99.90;;;;;;5092571;28;20040;-68
2023/10/27 06:39:30;;;;;;;606.13;88.97;;;11.30;99.90;;;;;;5092367;28;20525;-69
2023/10/27 06:41:56;;;;;;;43.22;17.45;;;11.40;99.90;;;;;;5092753;28;20115;-68
2023/10/27 06:44:22;;;;;;;83.30;21.95;;;11.30;99.90;;;;;;5093106;28;20108;-68
2023/10/27 06:46:48;;;;;;;34.65;16.23;;;11.40;99.90;;;;;;5095960;28;20103;-69
2023/10/27 06:49:14;;;;;;;34.67;16.70;;;11.40;99.90;;;;;;5086944;28;20025;-68
2023/10/27 06:51:40;;;;;;;39.00;17.00;;;11.40;99.90;;;;;;5083811;28;20052;-66
2023/10/27 06:54:05;;;;;;;53.03;19.05;;;11.40;99.90;;;;;;5086674;28;20462;-68
2023/10/27 06:56:31;;;;;;;45.30;23.90;;;11.40;99.90;;;;;;5090381;28;20090;-67
2023/10/27 06:58:58;;;;;;;38.13;17.33;;;11.40;99.90;;;;;;5096061;28;20024;-67
2023/10/27 07:01:23;;;;;;;36.38;17.70;;;11.50;99.90;;;;;;5094069;28;20102;-67
2023/10/27 07:03:50;;;;;;;37.63;18.42;;;11.50;99.90;;;;;;5083714;28;20457;-67
2023/10/27 07:06:15;;;;;;;42.28;20.33;;;11.50;99.90;;;;;;5096252;28;20109;-66
2023/10/27 07:08:43;;;;;;;36.83;17.42;;;11.50;99.90;;;;;;5094674;28;20086;-67
2023/10/27 07:11:09;;;;;;;41.15;20.73;;;11.50;99.90;;;;;;5095314;28;20032;-67
2023/10/27 07:13:35;;;;;;;36.10;16.80;;;11.50;99.90;;;;;;5094890;28;20024;-68
2023/10/27 07:16:01;;;;;;;38.15;17.33;;;11.50;99.90;;;;;;5095699;28;20039;-69
2023/10/27 07:18:26;;;;;;;36.97;17.42;;;11.50;99.90;;;;;;5094924;28;20024;-67
2023/10/27 07:20:53;;;;;;;43.35;20.13;;;11.50;99.90;;;;;;5094477;28;20043;-67
2023/10/27 07:23:19;;;;;;;38.72;17.85;;;11.60;99.90;;;;;;5095748;28;20161;-67
2023/10/27 07:25:44;;;;;;;34.95;15.75;;;11.60;99.90;;;;;;5096201;28;20523;-66
2023/10/27 07:28:10;;;;;;;34.53;16.13;;;11.60;99.90;;;;;;5094968;28;20021;-68
2023/10/27 07:30:36;;;;;;;29.92;14.27;;;11.60;99.90;;;;;;5096236;28;20036;-68
2023/10/27 07:33:03;;;;;;;32.85;15.45;;;11.70;99.90;;;;;;5096466;28;20074;-66
2023/10/27 07:35:30;;;;;;;31.80;14.90;;;11.70;99.90;;;;;;5096097;28;20043;-66
2023/10/27 07:37:56;;;;;;;33.53;16.33;;;11.80;99.90;;;;;;5096079;28;20036;-68
2023/10/27 07:40:22;;;;;;;32.83;15.27;;;11.70;99.90;;;;;;5096252;28;20031;-68
2023/10/27 07:42:47;;;;;;;34.03;15.88;;;11.80;99.90;;;;;;5095796;28;20096;-67
2023/10/27 07:45:13;;;;;;;32.30;15.10;;;11.80;99.90;;;;;;5095945;28;20059;-67
2023/10/27 07:47:38;;;;;;;28.95;14.00;;;11.90;99.90;;;;;;5096132;28;20056;-67
2023/10/27 07:50:06;;;;;;;32.15;18.02;;;12.00;99.90;;;;;;5095560;28;20031;-67
2023/10/27 07:52:32;;;;;;;35.88;19.00;;;12.00;99.90;;;;;;5095469;28;20057;-67
2023/10/27 07:54:59;;;;;;;34.45;16.35;;;12.10;99.90;;;;;;5095743;28;20028;-67
2023/10/27 07:57:27;;;;;;;30.90;14.85;;;12.10;99.90;;;;;;5094794;28;20075;-67
2023/10/27 07:59:52;;;;;;;28.20;15.05;;;12.20;99.90;;;;;;5096024;28;20032;-67
2023/10/27 08:02:18;;;;;;;25.13;13.90;;;12.20;99.90;;;;;;5096004;28;20077;-67
2023/10/27 08:04:43;;;;;;;27.55;13.75;;;12.20;99.90;;;;;;5095659;28;20441;-67
2023/10/27 08:07:09;;;;;;;27.15;14.60;;;12.30;99.90;;;;;;5095542;28;20020;-67
2023/10/27 08:09:34;;;;;;;28.60;15.05;;;12.30;99.90;;;;;;5095285;28;20028;-67
2023/10/27 08:12:00;;;;;;;28.10;14.63;;;12.30;99.90;;;;;;5095464;28;20047;-67
2023/10/27 08:14:26;;;;;;;30.35;15.35;;;12.40;99.90;;;;;;5095279;28;20471;-67
2023/10/27 08:16:51;;;;;;;29.73;15.35;;;12.40;99.90;;;;;;5095483;28;20032;-67
2023/10/27 08:19:17;;;;;;;28.85;15.10;;;12.40;99.90;;;;;;5095380;28;20433;-66
2023/10/27 08:21:44;;;;;;;27.83;14.25;;;12.50;99.90;;;;;;5094998;28;20183;-66
2023/10/27 08:24:09;;;;;;;27.08;14.77;;;12.50;99.90;;;;;;5094883;28;20016;-66
2023/10/27 08:26:35;;;;;;;26.52;14.23;;;12.50;99.90;;;;;;5094786;28;20024;-66
2023/10/27 08:29:01;;;;;;;28.85;15.32;;;12.60;99.90;;;;;;5095505;28;20467;-66
2023/10/27 08:31:26;;;;;;;27.23;14.65;;;12.60;99.90;;;;;;5095280;28;20455;-67
2023/10/27 08:33:52;;;;;;;25.50;14.13;;;12.60;99.90;;;;;;5095293;28;20505;-67
2023/10/27 08:36:19;;;;;;;27.30;14.60;;;12.60;99.90;;;;;;5094889;28;20043;-67
2023/10/27 08:38:44;;;;;;;26.20;13.38;;;12.60;99.90;;;;;;5094973;28;20032;-67
2023/10/27 08:41:10;;;;;;;25.50;14.13;;;12.60;99.90;;;;;;5094810;28;20573;-66
2023/10/27 08:43:37;;;;;;;29.80;15.65;;;12.60;99.90;;;;;;5094879;28;20032;-68
2023/10/27 08:46:05;;;;;;;27.20;15.00;;;12.60;99.90;;;;;;5094887;28;20523;-66
2023/10/27 08:48:32;;;;;;;26.38;14.73;;;12.60;99.90;;;;;;5094752;28;20042;-65
2023/10/27 08:51:04;;;;;;;28.40;16.00;;;12.70;99.90;;;;;;5094367;28;20024;-66
2023/10/27 08:53:30;;;;;;;28.13;16.73;;;12.70;99.90;;;;;;5094546;28;20040;-66
2023/10/27 08:55:59;;;;;;;26.75;13.90;;;12.70;99.90;;;;;;5094669;28;20360;-66
2023/10/27 08:58:24;;;;;;;26.63;14.88;;;12.80;99.90;;;;;;5094988;28;20028;-66
2023/10/27 09:00:50;;;;;;;26.08;13.90;;;12.80;99.90;;;;;;5094575;28;20077;-66
2023/10/27 09:03:17;;;;;;;26.40;14.85;;;12.80;99.90;;;;;;5094457;28;20032;-66
2023/10/27 09:05:43;;;;;;;33.03;16.58;;;12.80;99.90;;;;;;5094470;28;20024;-66
2023/10/27 09:08:10;;;;;;;26.25;14.30;;;12.80;99.90;;;;;;5094083;28;20109;-67
2023/10/27 09:10:36;;;;;;;26.23;14.60;;;12.90;99.90;;;;;;5094328;28;20032;-67
2023/10/27 09:13:03;;;;;;;26.60;14.32;;;12.80;99.90;;;;;;5093991;28;20513;-67
2023/10/27 09:15:47;;;;;;;28.52;16.13;;;12.90;99.90;;;;;;5094392;28;20119;-67
2023/10/27 09:18:13;;;;;;;26.70;14.52;;;12.90;99.90;;;;;;5094106;28;20032;-66
2023/10/27 09:20:52;;;;;;;28.15;14.18;;;12.90;99.90;;;;;;5093770;28;20032;-67
2023/10/27 09:23:19;;;;;;;23.63;13.13;;;12.90;99.90;;;;;;5094130;28;20051;-67
2023/10/27 09:25:46;;;;;;;22.88;12.48;;;13.00;99.90;;;;;;5094016;28;20479;-67
2023/10/27 09:28:12;;;;;;;22.25;12.10;;;13.00;99.90;;;;;;5094136;28;20039;-66
2023/10/27 09:30:43;;;;;;;21.90;12.88;;;13.00;99.90;;;;;;5094020;28;20513;-67
2023/10/27 09:33:15;;;;;;;22.52;12.45;;;12.90;99.90;;;;;;5093827;28;20452;-67
2023/10/27 09:35:42;;;;;;;24.17;12.63;;;12.90;99.90;;;;;;5094057;28;20046;-66
2023/10/27 09:38:08;;;;;;;22.05;11.90;;;12.90;99.90;;;;;;5093503;28;20387;-66
2023/10/27 09:40:36;;;;;;;23.00;12.68;;;12.90;99.90;;;;;;5093580;28;20376;-66
2023/10/27 09:43:02;;;;;;;23.60;12.80;;;12.90;99.90;;;;;;5093568;28;20032;-66
2023/10/27 09:45:32;;;;;;;22.20;12.50;;;13.00;99.90;;;;;;5093551;28;20027;-67
2023/10/27 09:48:05;;;;;;;22.95;12.68;;;12.90;99.90;;;;;;5093765;28;20031;-67
2023/10/27 09:50:32;;;;;;;22.48;12.50;;;12.90;99.90;;;;;;5093618;28;20036;-67
2023/10/27 09:53:00;;;;;;;21.65;11.77;;;13.00;99.90;;;;;;5093622;28;20040;-67
2023/10/27 09:55:30;;;;;;;20.30;12.00;;;13.00;99.90;;;;;;5093614;28;20043;-68
2023/10/27 09:57:57;;;;;;;22.00;11.40;;;13.00;99.90;;;;;;5093453;28;20491;-68
2023/10/27 10:00:27;;;;;;;20.55;12.00;;;13.10;99.90;;;;;;5093452;28;20031;-68
2023/10/27 10:02:54;;;;;;;21.45;11.48;;;13.10;99.90;;;;;;5093490;28;20024;-68
2023/10/27 10:05:19;;;;;;;18.73;10.77;;;13.10;99.90;;;;;;5093286;28;20028;-68
2023/10/27 10:08:19;;;;;;;21.75;11.75;;;13.10;99.90;;;;;;5093608;28;20149;-68
2023/10/27 10:10:38;;;;;;;20.52;10.95;;;13.10;99.90;;;;;;5090692;28;20047;-68
2023/10/27 10:13:08;;;;;;;20.65;11.70;;;13.10;99.90;;;;;;5093343;28;20028;-68
2023/10/27 10:15:33;;;;;;;20.40;11.02;;;13.10;99.90;;;;;;5091892;28;20040;-68
2023/10/27 10:18:04;;;;;;;20.98;11.68;;;13.10;99.90;;;;;;5093971;28;20372;-68
2023/10/27 10:20:44;;;;;;;20.52;11.55;;;13.10;99.90;;;;;;5092697;28;20028;-68
2023/10/27 10:23:13;;;;;;;18.55;10.20;;;13.10;99.90;;;;;;5111895;28;20023;-68
2023/10/27 10:25:54;;;;;;;21.45;11.95;;;13.10;99.90;;;;;;5109669;28;20034;-67
2023/10/27 10:28:20;;;;;;;20.23;11.55;;;13.10;99.90;;;;;;5093215;28;20036;-67
2023/10/27 10:31:13;;;;;;;19.10;11.10;;;13.10;99.90;;;;;;5092999;28;20028;-67
2023/10/27 10:33:45;;;;;;;19.63;11.30;;;13.20;99.90;;;;;;5093030;28;20067;-67
2023/10/27 10:36:14;;;;;;;20.42;11.35;;;13.20;99.90;;;;;;5073364;28;20044;-68
2023/10/27 10:38:44;;;;;;;18.98;10.88;;;13.30;99.90;;;;;;5072928;28;20111;-68
2023/10/27 10:41:10;;;;;;;20.95;12.00;;;13.30;99.90;;;;;;5072946;28;20035;-68
2023/10/27 10:43:39;;;;;;;20.77;12.52;;;13.40;99.90;;;;;;5072971;28;20028;-68
2023/10/27 10:46:06;;;;;;;18.33;9.95;;;13.40;99.90;;;;;;5072418;28;20031;-68
2023/10/27 10:48:34;;;;;;;17.40;9.98;;;13.40;99.90;;;;;;5072888;28;20025;-68
2023/10/27 10:51:12;;;;;;;18.77;10.30;;;13.40;99.90;;;;;;5091332;28;20460;-68
2023/10/27 10:53:38;;;;;;;19.30;11.00;;;13.40;99.90;;;;;;5093022;28;20048;-68
2023/10/27 10:56:04;;;;;;;18.65;10.23;;;13.30;99.90;;;;;;5093137;28;20086;-68
2023/10/27 10:58:34;;;;;;;18.33;10.43;;;13.30;99.90;;;;;;5092484;28;20383;-68
2023/10/27 11:01:00;;;;;;;18.10;9.43;;;13.30;99.90;;;;;;5092872;28;20032;-68
2023/10/27 11:03:34;;;;;;;23.42;13.13;;;13.20;99.90;;;;;;5092775;28;20035;-67
2023/10/27 11:06:05;;;;;;;16.38;8.82;;;13.20;99.90;;;;;;5093175;28;20024;-68
2023/10/27 11:08:37;;;;;;;18.42;10.05;;;13.20;99.90;;;;;;5093057;28;20047;-68
2023/10/27 11:11:09;;;;;;;;;;;13.10;99.90;;;;;;5092836;28;20024;-68
2023/10/27 11:13:44;;;;;;;21.95;12.05;;;13.00;99.90;;;;;;5091642;28;20279;-68
2023/10/27 11:16:14;;;;;;;16.35;9.23;;;13.00;99.90;;;;;;5092654;28;20416;-68
2023/10/27 11:18:40;;;;;;;20.27;11.68;;;13.00;99.90;;;;;;5092644;28;20380;-68
2023/10/27 11:21:05;;;;;;;16.90;8.80;;;13.00;99.90;;;;;;5093041;28;20035;-69
2023/10/27 11:23:31;;;;;;;15.57;8.25;;;12.90;99.90;;;;;;5089535;28;20028;-68
2023/10/27 11:26:04;;;;;;;20.00;10.30;;;12.80;99.90;;;;;;5101232;28;20038;-67
2023/10/27 11:28:30;;;;;;;13.57;7.15;;;12.90;99.90;;;;;;5112657;28;20123;-67
2023/10/27 11:31:07;;;;;;;14.77;7.35;;;12.90;99.90;;;;;;5113031;28;20119;-67
2023/10/27 11:33:33;;;;;;;10.98;6.10;;;12.90;99.90;;;;;;5115052;28;20031;-67
2023/10/27 11:35:59;;;;;;;14.13;6.90;;;12.90;99.90;;;;;;5116392;27;20039;-67
2023/10/27 11:38:32;;;;;;;20.63;7.95;;;12.90;99.90;;;;;;5117242;28;20303;-67
2023/10/27 11:41:11;;;;;;;15.18;7.10;;;12.90;99.90;;;;;;5116529;28;20102;-67
2023/10/27 11:43:37;;;;;;;15.45;8.23;;;12.90;99.90;;;;;;5116449;27;20024;-67
2023/10/27 11:46:14;;;;;;;12.95;7.10;;;12.90;99.90;;;;;;5116604;28;20023;-68
2023/10/27 11:48:40;;;;;;;12.98;7.45;;;12.80;99.90;;;;;;5116215;28;20054;-68
2023/10/27 11:51:06;;;;;;;13.35;7.35;;;12.90;99.90;;;;;;5096743;27;20371;-67
2023/10/27 11:53:34;;;;;;;12.95;7.00;;;13.00;99.90;;;;;;5095937;28;20044;-67
2023/10/27 11:56:00;;;;;;;14.57;8.10;;;13.00;99.90;;;;;;5095640;28;20070;-67
2023/10/27 11:58:26;;;;;;;13.48;7.75;;;13.10;99.90;;;;;;5095804;28;20429;-66
2023/10/27 12:00:51;;;;;;;13.90;7.90;;;13.10;99.90;;;;;;5095293;28;20124;-67
2023/10/27 12:03:17;;;;;;;16.90;9.05;;;13.10;99.90;;;;;;5095727;28;20131;-66
2023/10/27 12:05:42;;;;;;;15.40;8.68;;;13.20;99.90;;;;;;5096125;28;20452;-66
2023/10/27 12:08:08;;;;;;;14.95;8.23;;;13.30;99.90;;;;;;5095119;28;20059;-66
2023/10/27 12:10:34;;;;;;;15.20;8.00;;;13.30;99.90;;;;;;5094914;28;20024;-66
2023/10/27 12:13:06;;;;;;;13.38;7.47;;;13.40;99.90;;;;;;5093624;28;20024;-66
2023/10/27 12:15:33;;;;;;;12.77;7.65;;;13.40;99.90;;;;;;5095258;28;20046;-66
2023/10/27 12:17:59;;;;;;;15.77;8.90;;;13.40;99.90;;;;;;5094953;28;20383;-66
2023/10/27 12:20:26;;;;;;;14.80;7.47;;;13.50;99.90;;;;;;5095023;28;20020;-66
2023/10/27 12:22:54;;;;;;;16.63;9.35;;;13.50;99.90;;;;;;5095229;28;20085;-66
2023/10/27 12:25:20;;;;;;;11.77;7.38;;;13.60;99.90;;;;;;5095805;28;20047;-66